Time;durP1;ratioP1;P1;durP2;ratioP2;P2;SDS_P1;SDS_P2;PMS_P1;PMS_P2;Temp;Humidity;BMP_temperature;BMP_pressure;BME280_temperature;BME280_humidity;BME280_pressure;Samples;Min_cycle;Max_cycle;Signal;HPM_P1;HPM_P2
2023/03/05 00:01:14;;;;;;;4.60;1.67;;;;;;;1.10;87.08;101402.66;4996488;28;20204;-48
2023/03/05 00:03:39;;;;;;;8.93;1.58;;;;;;;1.08;86.57;101397.34;5012678;28;20161;-46
2023/03/05 00:06:06;;;;;;;9.43;1.63;;;;;;;1.08;86.21;101393.81;5024878;28;20270;-47
2023/03/05 00:08:32;;;;;;;6.45;1.65;;;;;;;1.11;85.85;101389.44;5032487;28;20596;-47
2023/03/05 00:10:59;;;;;;;8.88;1.70;;;;;;;1.12;85.17;101388.59;5020445;28;20219;-48
2023/03/05 00:13:25;;;;;;;7.95;1.38;;;;;;;1.12;85.26;101379.81;5020995;28;20614;-49
2023/03/05 00:15:50;;;;;;;5.78;1.88;;;;;;;1.18;84.76;101383.38;5032075;28;20192;-49
2023/03/05 00:18:16;;;;;;;8.55;1.80;;;;;;;1.19;84.11;101368.41;5023827;28;20188;-48
2023/03/05 00:20:44;;;;;;;3.15;1.50;;;;;;;1.21;83.95;101370.19;5019603;28;20179;-49
2023/03/05 00:23:10;;;;;;;10.35;1.50;;;;;;;1.25;83.66;101363.19;5017096;28;20196;-47
2023/03/05 00:25:37;;;;;;;6.43;1.52;;;;;;;1.24;83.46;101369.34;5022397;28;20208;-50
2023/03/05 00:28:03;;;;;;;7.30;1.58;;;;;;;1.18;83.11;101345.53;5017886;28;20694;-50
2023/03/05 00:30:31;;;;;;;8.60;1.88;;;;;;;1.17;82.83;101357.84;5019494;28;20682;-50
2023/03/05 00:32:57;;;;;;;9.60;1.85;;;;;;;1.20;82.83;101351.69;5018802;28;20818;-50
2023/03/05 00:35:22;;;;;;;5.07;1.48;;;;;;;1.31;82.36;101357.06;5022454;28;20271;-49
2023/03/05 00:37:48;;;;;;;9.98;1.30;;;;;;;1.29;82.19;101342.97;5024684;28;20200;-50
2023/03/05 00:40:14;;;;;;;8.32;1.30;;;;;;;1.30;81.86;101343.00;5008279;28;20220;-50
2023/03/05 00:42:40;;;;;;;6.18;1.25;;;;;;;1.36;81.49;101334.25;5004271;28;20203;-50
2023/03/05 00:45:08;;;;;;;5.43;1.08;;;;;;;1.38;81.06;101327.22;5018266;28;20692;-50
2023/03/05 00:47:34;;;;;;;8.73;1.58;;;;;;;1.34;81.02;101325.44;5023317;28;20326;-48
2023/03/05 00:50:01;;;;;;;5.57;1.55;;;;;;;1.26;81.05;101314.81;5003888;28;20288;-50
2023/03/05 00:52:26;;;;;;;6.90;1.30;;;;;;;1.22;80.81;101328.84;5021355;28;20200;-50
2023/03/05 00:54:52;;;;;;;9.00;1.77;;;;;;;1.33;80.82;101321.00;5022574;28;20235;-50
2023/03/05 00:57:17;;;;;;;7.38;1.75;;;;;;;1.22;81.26;101319.19;5011145;28;20185;-50
2023/03/05 00:59:43;;;;;;;6.80;1.13;;;;;;;1.15;80.80;101305.91;5011063;28;20254;-48
2023/03/05 01:02:09;;;;;;;5.18;1.40;;;;;;;1.20;80.70;101320.03;5020106;28;20216;-49
2023/03/05 01:04:34;;;;;;;5.80;1.20;;;;;;;1.15;80.71;101298.88;5022685;28;20759;-50
2023/03/05 01:07:00;;;;;;;8.60;1.63;;;;;;;1.10;80.84;101307.66;5008010;28;20597;-49
2023/03/05 01:09:25;;;;;;;8.43;1.65;;;;;;;1.10;80.90;101307.66;5003143;28;20299;-49
2023/03/05 01:11:51;;;;;;;10.63;1.60;;;;;;;1.05;81.47;101306.72;5019510;28;20641;-49
2023/03/05 01:14:18;;;;;;;12.13;2.58;;;;;;;1.15;81.21;101305.91;5021466;28;20184;-50
2023/03/05 01:16:43;;;;;;;9.23;1.75;;;;;;;1.08;81.14;101296.19;5011405;28;20179;-49
2023/03/05 01:19:10;;;;;;;7.65;1.60;;;;;;;1.03;81.35;101304.94;5018025;28;20168;-50
2023/03/05 01:21:36;;;;;;;8.90;1.55;;;;;;;1.00;81.40;101304.91;5016305;28;20208;-50
2023/03/05 01:24:02;;;;;;;6.82;1.48;;;;;;;1.04;81.15;101295.28;5009948;28;20192;-49
2023/03/05 01:26:28;;;;;;;5.10;1.50;;;;;;;1.02;81.36;101297.88;5017732;28;20204;-49
2023/03/05 01:28:54;;;;;;;9.95;1.60;;;;;;;0.94;81.37;101302.25;4999211;28;20536;-47
2023/03/05 01:31:19;;;;;;;6.47;1.60;;;;;;;0.91;81.49;101293.41;5002319;28;20188;-53
2023/03/05 01:33:45;;;;;;;7.35;1.50;;;;;;;0.83;81.65;101293.31;5014887;28;20516;-50
2023/03/05 01:36:15;;;;;;;9.15;1.65;;;;;;;0.81;81.68;101277.50;5015405;28;20564;-48
2023/03/05 01:38:45;;;;;;;8.43;1.85;;;;;;;0.76;81.89;101289.75;5020396;28;20315;-49
2023/03/05 01:41:12;;;;;;;7.90;1.45;;;;;;;0.73;81.53;101296.75;5016442;28;20270;-49
2023/03/05 01:43:38;;;;;;;10.60;1.63;;;;;;;0.66;81.67;101287.91;5004849;28;20185;-49
2023/03/05 01:46:29;;;;;;;7.90;1.20;;;;;;;0.65;82.30;101293.16;5018290;28;20583;-47
2023/03/05 01:49:38;;;;;;;8.90;2.13;;;;;;;0.65;81.99;101296.66;5011542;28;20196;-49
2023/03/05 01:52:21;;;;;;;8.00;1.70;;;;;;;0.72;81.97;101285.34;5019401;28;20752;-49
2023/03/05 01:54:50;;;;;;;12.60;1.52;;;;;;;0.66;81.53;101284.41;5014753;28;20222;-49
2023/03/05 01:57:24;;;;;;;5.35;1.30;;;;;;;0.52;81.77;101285.13;5010214;28;20188;-48
2023/03/05 01:59:55;;;;;;;4.50;1.15;;;;;;;0.59;81.77;101275.50;5010441;28;20175;-49
2023/03/05 02:02:21;;;;;;;4.82;1.20;;;;;;;0.56;81.99;101265.81;5018648;28;20705;-51
2023/03/05 02:04:54;;;;;;;5.55;1.13;;;;;;;0.44;82.17;101271.00;5011180;28;20180;-50
2023/03/05 02:07:21;;;;;;;7.93;1.55;;;;;;;0.45;82.15;101277.16;5011087;28;20200;-50
2023/03/05 02:09:47;;;;;;;7.40;1.52;;;;;;;0.45;82.41;101285.06;5019705;28;20180;-51
2023/03/05 02:12:13;;;;;;;6.45;1.23;;;;;;;0.41;82.19;101274.47;5018707;28;20208;-49
2023/03/05 02:14:41;;;;;;;10.25;1.60;;;;;;;0.35;82.66;101282.31;5020277;28;20344;-50
2023/03/05 02:17:07;;;;;;;5.38;1.10;;;;;;;0.40;82.66;101275.34;5021514;28;20707;-49
2023/03/05 02:19:52;;;;;;;4.82;1.20;;;;;;;0.40;82.33;101270.06;5009055;28;20172;-50
2023/03/05 02:22:19;;;;;;;7.13;1.20;;;;;;;0.35;82.41;101255.06;5008745;28;20220;-50
2023/03/05 02:24:45;;;;;;;6.00;1.25;;;;;;;0.33;82.07;101262.97;5018293;28;20172;-50
2023/03/05 02:27:12;;;;;;;4.55;1.30;;;;;;;0.32;82.31;101255.03;5010506;28;20222;-49
2023/03/05 02:29:43;;;;;;;6.35;1.30;;;;;;;0.26;82.73;101247.94;5015554;28;20181;-51
2023/03/05 02:32:09;;;;;;;8.73;1.60;;;;;;;0.24;82.83;101254.06;5017216;28;20212;-49
2023/03/05 02:34:35;;;;;;;7.72;1.77;;;;;;;0.24;83.13;101254.97;5010040;28;20347;-50
2023/03/05 02:37:03;;;;;;;7.22;1.60;;;;;;;0.14;82.89;101250.47;4984096;28;20651;-49
2023/03/05 02:39:30;;;;;;;6.97;1.10;;;;;;;0.15;83.41;101247.84;5007485;28;20196;-51
2023/03/05 02:41:56;;;;;;;4.55;1.02;;;;;;;0.15;83.56;101249.59;5002506;28;20200;-51
2023/03/05 02:44:22;;;;;;;7.03;1.27;;;;;;;0.17;83.56;101247.84;5002785;28;20545;-51
2023/03/05 02:46:48;;;;;;;8.85;1.40;;;;;;;0.27;83.53;101252.38;5022161;28;20220;-50
2023/03/05 02:49:13;;;;;;;4.90;1.05;;;;;;;0.21;83.33;101247.03;5023188;28;20218;-48
2023/03/05 02:51:39;;;;;;;7.07;1.00;;;;;;;0.24;83.91;101248.81;5016867;28;20244;-49
2023/03/05 02:54:06;;;;;;;8.65;1.35;;;;;;;0.28;83.64;101246.22;5001639;28;20613;-49
2023/03/05 02:56:31;;;;;;;5.85;1.45;;;;;;;0.16;83.87;101244.34;5012956;28;20311;-49
2023/03/05 02:59:00;;;;;;;5.07;1.60;;;;;;;0.11;84.10;101239.88;5020206;28;20620;-49
2023/03/05 03:01:27;;;;;;;6.15;1.48;;;;;;;0.16;84.43;101235.56;5007370;28;20284;-50
2023/03/05 03:03:53;;;;;;;8.63;1.30;;;;;;;0.13;83.75;101240.78;4997621;28;20325;-49
2023/03/05 03:06:19;;;;;;;6.45;1.33;;;;;;;0.07;84.37;101238.97;5004671;28;20230;-49
2023/03/05 03:08:44;;;;;;;13.18;1.50;;;;;;;0.05;84.62;101222.25;5015665;28;20189;-49
2023/03/05 03:11:11;;;;;;;6.28;1.35;;;;;;;0.11;84.61;101232.88;5017963;28;20655;-49
2023/03/05 03:13:37;;;;;;;7.10;1.55;;;;;;;0.11;84.67;101218.78;5016630;28;20759;-48
2023/03/05 03:16:09;;;;;;;5.40;1.50;;;;;;;0.22;84.25;101221.53;5017071;28;20247;-50
2023/03/05 03:18:35;;;;;;;6.22;1.20;;;;;;;0.20;84.71;101219.78;5009919;28;20335;-49
2023/03/05 03:21:01;;;;;;;4.95;1.00;;;;;;;0.17;84.86;101210.97;5017426;28;20857;-50
2023/03/05 03:23:27;;;;;;;4.63;0.90;;;;;;;0.16;84.87;101225.91;5015214;28;20196;-49
2023/03/05 03:25:52;;;;;;;13.18;1.50;;;;;;;0.17;84.83;101226.78;5017930;28;20200;-49
2023/03/05 03:28:18;;;;;;;15.02;1.30;;;;;;;0.16;84.94;101214.47;5018778;28;20172;-50
2023/03/05 03:30:44;;;;;;;4.93;0.90;;;;;;;0.25;84.88;101219.84;5016837;28;20216;-52
2023/03/05 03:33:10;;;;;;;3.78;1.50;;;;;;;0.26;84.91;101208.41;5017614;28;20299;-50
2023/03/05 03:35:35;;;;;;;6.85;1.23;;;;;;;0.28;84.53;101206.69;5018516;28;20177;-49
2023/03/05 03:38:01;;;;;;;6.88;1.30;;;;;;;0.37;85.04;101200.63;5012596;28;20179;-49
2023/03/05 03:40:26;;;;;;;4.38;1.30;;;;;;;0.43;85.10;101205.06;5024593;28;20183;-49
2023/03/05 03:42:53;;;;;;;9.50;1.48;;;;;;;0.35;85.05;101207.63;5025853;28;20313;-50
2023/03/05 03:45:20;;;;;;;7.78;1.20;;;;;;;0.43;84.73;101199.81;5022218;28;20691;-48
2023/03/05 03:47:50;;;;;;;10.38;1.38;;;;;;;0.50;84.70;101186.66;5021203;28;20184;-47
2023/03/05 03:50:16;;;;;;;5.72;1.27;;;;;;;0.50;84.50;101186.66;5016894;28;20558;-48
2023/03/05 03:52:42;;;;;;;2.88;1.27;;;;;;;0.50;84.41;101177.88;5016071;28;20207;-47
2023/03/05 03:55:08;;;;;;;4.43;1.02;;;;;;;0.48;84.66;101171.72;5013788;28;20176;-48
2023/03/05 03:57:34;;;;;;;8.73;1.30;;;;;;;0.45;84.10;101191.03;5015262;28;20200;-47
2023/03/05 03:59:59;;;;;;;6.32;1.38;;;;;;;0.45;84.13;101169.94;5029906;28;20214;-51
2023/03/05 04:02:25;;;;;;;5.55;1.02;;;;;;;0.45;84.63;101187.53;5018695;28;20214;-50
2023/03/05 04:04:51;;;;;;;5.53;1.20;;;;;;;0.48;84.33;101175.25;5005842;28;20207;-50
2023/03/05 04:07:17;;;;;;;6.22;1.00;;;;;;;0.56;84.71;101181.47;5022630;28;20288;-49
2023/03/05 04:09:42;;;;;;;4.95;1.15;;;;;;;0.50;84.58;101165.59;5023470;28;20699;-52
2023/03/05 04:12:08;;;;;;;8.43;1.30;;;;;;;0.50;84.58;101172.63;5019983;28;20211;-50
2023/03/05 04:14:34;;;;;;;10.30;1.10;;;;;;;0.50;85.02;101165.59;5019947;28;20199;-51
2023/03/05 04:17:00;;;;;;;10.65;1.52;;;;;;;0.50;84.79;101156.81;5024240;28;20620;-52
2023/03/05 04:19:27;;;;;;;7.10;1.35;;;;;;;0.48;84.87;101156.81;4999477;28;20314;-51
2023/03/05 04:21:52;;;;;;;3.28;1.30;;;;;;;0.48;84.62;101161.19;5015592;28;20254;-51
2023/03/05 04:24:18;;;;;;;6.45;1.30;;;;;;;0.47;85.15;101164.69;5020635;28;20176;-52
2023/03/05 04:26:43;;;;;;;8.57;1.15;;;;;;;0.49;84.84;101150.66;5020033;28;20218;-51
2023/03/05 04:29:09;;;;;;;4.05;1.05;;;;;;;0.41;84.67;101153.22;5015474;28;20247;-51
2023/03/05 04:31:34;;;;;;;6.22;1.02;;;;;;;0.39;84.94;101144.44;5005178;28;20290;-52
2023/03/05 04:34:00;;;;;;;9.75;1.98;;;;;;;0.40;85.31;101153.22;5016859;28;20288;-52
2023/03/05 04:36:25;;;;;;;9.25;1.58;;;;;;;0.36;85.75;101152.28;5016453;28;20660;-51
2023/03/05 04:38:51;;;;;;;5.70;1.30;;;;;;;0.35;85.94;101161.09;5008400;28;20232;-51
2023/03/05 04:41:16;;;;;;;7.72;1.30;;;;;;;0.40;87.01;101169.91;5018358;28;20275;-50
2023/03/05 04:43:42;;;;;;;6.97;1.63;;;;;;;0.43;87.29;101160.25;5016728;28;20176;-51
2023/03/05 04:46:08;;;;;;;9.32;1.60;;;;;;;0.39;88.26;101160.25;5018828;28;20208;-51
2023/03/05 04:48:33;;;;;;;4.63;1.83;;;;;;;0.35;88.82;101174.28;5016891;28;20596;-51
2023/03/05 04:50:59;;;;;;;7.97;1.63;;;;;;;0.35;89.61;101176.91;5019317;28;20188;-52
2023/03/05 04:53:24;;;;;;;4.05;1.05;;;;;;;0.38;90.46;101171.66;5016860;28;20291;-52
2023/03/05 04:55:54;;;;;;;8.15;1.48;;;;;;;0.32;91.45;101171.59;5014235;28;20204;-52
2023/03/05 04:58:20;;;;;;;7.03;1.50;;;;;;;0.32;92.37;101173.34;5018857;28;20199;-50
2023/03/05 05:00:45;;;;;;;6.50;1.10;;;;;;;0.24;93.54;101165.38;5019593;28;20188;-51
2023/03/05 05:03:11;;;;;;;8.82;1.40;;;;;;;0.32;94.24;101170.72;5017194;28;20219;-51
2023/03/05 05:05:36;;;;;;;5.75;1.38;;;;;;;0.33;94.97;101175.13;5021259;28;20243;-51
2023/03/05 05:08:02;;;;;;;6.40;1.20;;;;;;;0.26;95.56;101175.91;5019059;28;20561;-51
2023/03/05 05:10:28;;;;;;;6.05;1.35;;;;;;;0.20;96.11;101175.00;5017743;28;20267;-52
2023/03/05 05:12:53;;;;;;;5.95;2.40;;;;;;;0.26;96.93;101168.88;5019640;28;20215;-51
2023/03/05 05:15:19;;;;;;;7.55;1.45;;;;;;;0.19;97.17;101159.16;5020062;28;20196;-51
2023/03/05 05:17:45;;;;;;;9.40;1.25;;;;;;;0.10;98.37;101169.63;5015655;28;20176;-51
2023/03/05 05:20:12;;;;;;;8.80;1.40;;;;;;;0.04;98.55;101167.78;5019387;28;20258;-51
2023/03/05 05:22:37;;;;;;;4.75;0.98;;;;;;;0.07;99.16;101149.41;5010235;28;20677;-50
2023/03/05 05:25:04;;;;;;;6.35;1.13;;;;;;;0.06;99.66;101154.66;5018515;28;20192;-51
2023/03/05 05:27:29;;;;;;;4.72;1.25;;;;;;;0.08;99.98;101153.78;5018042;28;20260;-53
2023/03/05 05:29:55;;;;;;;9.05;1.17;;;;;;;-0.01;100.00;101146.69;5017523;28;20496;-51
2023/03/05 05:32:22;;;;;;;6.05;1.52;;;;;;;0.01;100.00;101143.19;5019427;28;20196;-51
2023/03/05 05:34:53;;;;;;;8.60;1.20;;;;;;;0.03;100.00;101150.25;5018794;28;20242;-50
2023/03/05 05:37:18;;;;;;;5.18;1.08;;;;;;;0.06;100.00;101149.38;5011418;28;20180;-50
2023/03/05 05:39:48;;;;;;;7.20;1.20;;;;;;;0.06;100.00;101152.88;5004064;28;20198;-50
2023/03/05 05:42:16;;;;;;;7.60;1.30;;;;;;;0.05;100.00;101156.41;5002400;28;20196;-51
2023/03/05 05:44:41;;;;;;;7.07;1.60;;;;;;;-0.02;100.00;101150.19;5018950;28;20650;-52
2023/03/05 05:47:07;;;;;;;6.65;1.30;;;;;;;-0.11;100.00;101136.94;5016845;28;20285;-51
2023/03/05 05:49:32;;;;;;;6.15;1.05;;;;;;;-0.12;100.00;101135.16;5015536;28;20823;-51
2023/03/05 05:51:58;;;;;;;5.10;1.17;;;;;;;-0.10;100.00;101141.31;5004131;28;20222;-51
2023/03/05 05:54:23;;;;;;;4.50;1.10;;;;;;;-0.14;100.00;101129.00;5004408;28;20179;-52
2023/03/05 05:56:49;;;;;;;6.28;1.10;;;;;;;-0.23;100.00;101135.03;5015023;28;20171;-50
2023/03/05 05:59:14;;;;;;;2.95;1.05;;;;;;;-0.26;100.00;101135.03;5022149;28;20187;-52
2023/03/05 06:01:40;;;;;;;6.90;1.25;;;;;;;-0.28;100.00;101125.34;4995815;28;20701;-51
2023/03/05 06:04:06;;;;;;;5.45;1.20;;;;;;;-0.23;100.00;101126.25;5015239;28;21084;-51
2023/03/05 06:06:33;;;;;;;6.35;1.05;;;;;;;-0.29;100.00;101132.34;5017446;28;20292;-51
2023/03/05 06:09:00;;;;;;;7.00;1.20;;;;;;;-0.26;100.00;101128.88;5016781;28;20713;-52
2023/03/05 06:11:26;;;;;;;8.85;1.15;;;;;;;-0.26;100.00;101136.78;5017409;28;20180;-51
2023/03/05 06:13:51;;;;;;;4.47;1.17;;;;;;;-0.21;100.00;101132.44;5016402;28;20557;-53
2023/03/05 06:16:20;;;;;;;5.18;1.20;;;;;;;-0.19;100.00;101135.97;5015680;28;20188;-52
2023/03/05 06:18:46;;;;;;;4.53;1.33;;;;;;;-0.21;100.00;101146.47;5000755;28;20173;-51
2023/03/05 06:21:14;;;;;;;10.05;1.10;;;;;;;-0.13;100.00;101140.41;5017911;28;20195;-51
2023/03/05 06:23:41;;;;;;;8.30;1.45;;;;;;;-0.15;100.00;101139.50;5015784;28;20709;-51
2023/03/05 06:26:07;;;;;;;5.10;1.27;;;;;;;-0.09;100.00;101150.09;5016140;28;20214;-50
2023/03/05 06:28:34;;;;;;;8.48;1.65;;;;;;;-0.15;100.00;101142.13;5013992;28;20242;-50
2023/03/05 06:31:04;;;;;;;6.25;2.05;;;;;;;-0.13;100.00;101141.31;5005024;28;20212;-50
2023/03/05 06:33:30;;;;;;;6.03;1.35;;;;;;;-0.07;100.00;101145.72;5015206;28;20568;-51
2023/03/05 06:35:55;;;;;;;8.32;1.30;;;;;;;0.01;100.00;101159.88;5015670;28;20172;-51
2023/03/05 06:38:21;;;;;;;4.97;1.42;;;;;;;-0.05;100.00;101151.91;5018031;28;20245;-52
2023/03/05 06:40:46;;;;;;;4.72;1.38;;;;;;;0.06;100.00;101145.00;5021342;28;20187;-51
2023/03/05 06:43:12;;;;;;;4.88;1.20;;;;;;;0.17;100.00;101145.97;5013933;28;20232;-51
2023/03/05 06:45:38;;;;;;;9.95;1.65;;;;;;;0.16;100.00;101152.13;5017542;28;20176;-51
2023/03/05 06:48:03;;;;;;;5.18;1.40;;;;;;;0.17;100.00;101150.38;5006699;28;20297;-51
2023/03/05 06:50:29;;;;;;;7.85;1.20;;;;;;;0.26;100.00;101145.16;5020905;28;20192;-50
2023/03/05 06:52:54;;;;;;;7.00;1.30;;;;;;;0.28;100.00;101134.66;5017382;28;20728;-51
2023/03/05 06:55:20;;;;;;;5.68;1.02;;;;;;;0.37;100.00;101146.19;5021893;28;20172;-51
2023/03/05 06:57:46;;;;;;;8.88;1.40;;;;;;;0.60;100.00;101142.84;5018431;28;20169;-51
2023/03/05 07:00:12;;;;;;;7.75;1.45;;;;;;;0.74;100.00;101137.66;5018050;28;20200;-50
2023/03/05 07:02:38;;;;;;;6.13;1.48;;;;;;;0.89;100.00;101136.88;5017951;28;20204;-50
2023/03/05 07:05:05;;;;;;;6.45;1.55;;;;;;;1.12;100.00;101122.06;5017565;28;20710;-51
2023/03/05 07:07:31;;;;;;;8.43;1.70;;;;;;;1.33;98.90;101121.25;5019150;28;20247;-52
2023/03/05 07:09:57;;;;;;;5.28;1.15;;;;;;;1.52;98.33;101124.88;5018485;28;20266;-50
2023/03/05 07:12:23;;;;;;;6.53;1.25;;;;;;;1.54;96.88;101112.56;5018981;28;20302;-45
2023/03/05 07:14:49;;;;;;;7.82;0.82;;;;;;;1.86;95.89;101114.41;5020989;28;20175;-51
2023/03/05 07:17:14;;;;;;;6.88;1.17;;;;;;;2.19;95.02;101102.13;5018982;28;20643;-51
2023/03/05 07:19:41;;;;;;;4.93;1.40;;;;;;;2.18;93.47;101101.22;5022127;28;20223;-50
2023/03/05 07:22:07;;;;;;;5.05;1.38;;;;;;;2.32;91.98;101095.06;5025942;28;20201;-49
2023/03/05 07:24:33;;;;;;;10.23;1.30;;;;;;;2.67;90.92;101089.75;5021283;28;20176;-53
2023/03/05 07:26:59;;;;;;;3.22;0.93;;;;;;;2.75;89.47;101084.44;5024558;28;20231;-52
2023/03/05 07:29:26;;;;;;;6.47;1.70;;;;;;;3.12;88.37;101082.56;5026368;28;20239;-50
2023/03/05 07:31:52;;;;;;;6.47;1.52;;;;;;;3.07;86.62;101069.34;5017861;28;20900;-51
2023/03/05 07:34:17;;;;;;;5.93;1.33;;;;;;;3.30;85.19;101061.31;5019915;28;20177;-50
2023/03/05 07:36:43;;;;;;;5.95;1.95;;;;;;;3.38;83.86;101055.97;5008762;28;20649;-50
2023/03/05 07:39:10;;;;;;;3.78;1.88;;;;;;;3.78;82.70;101044.25;5020738;28;20275;-49
2023/03/05 07:41:37;;;;;;;5.40;1.23;;;;;;;3.87;80.93;101036.25;5017368;28;20271;-50
2023/03/05 07:44:02;;;;;;;3.92;1.20;;;;;;;3.96;79.40;101043.25;5019010;28;20221;-50
2023/03/05 07:46:30;;;;;;;6.05;1.20;;;;;;;3.29;78.45;101022.47;5020944;28;20292;-50
2023/03/05 07:48:56;;;;;;;4.82;1.20;;;;;;;2.87;78.02;101026.22;5019200;28;20172;-51
2023/03/05 07:51:23;;;;;;;7.82;1.15;;;;;;;2.59;78.16;101013.03;5021268;28;20250;-50
2023/03/05 07:53:50;;;;;;;6.00;1.05;;;;;;;2.46;78.38;101025.41;5018916;28;20179;-51
2023/03/05 07:56:22;;;;;;;5.47;1.27;;;;;;;2.45;77.65;101025.44;5017102;28;20168;-49
2023/03/05 07:58:48;;;;;;;2.50;0.80;;;;;;;2.42;77.13;101028.06;5020487;28;20192;-48
2023/03/05 08:01:13;;;;;;;5.65;1.00;;;;;;;2.63;77.05;101021.88;5023458;28;20279;-47
2023/03/05 08:03:40;;;;;;;4.65;1.15;;;;;;;2.86;76.19;101012.09;5018890;28;20177;-48
2023/03/05 08:06:07;;;;;;;6.35;1.13;;;;;;;3.24;75.48;101016.34;5020654;28;20266;-49
2023/03/05 08:08:32;;;;;;;5.00;1.00;;;;;;;2.88;74.71;101012.06;5012120;28;20634;-52
2023/03/05 08:11:06;;;;;;;7.15;1.27;;;;;;;2.67;74.39;101007.75;5018470;28;20173;-49
2023/03/05 08:13:32;;;;;;;5.82;1.40;;;;;;;2.69;74.59;101006.00;5012922;28;20244;-53
2023/03/05 08:15:58;;;;;;;2.75;1.20;;;;;;;2.77;74.07;100990.94;5021237;28;20176;-50
2023/03/05 08:18:24;;;;;;;4.57;1.10;;;;;;;3.18;73.80;100999.59;5022068;28;20566;-48
2023/03/05 08:20:49;;;;;;;5.68;1.25;;;;;;;3.36;72.93;100990.66;5019715;28;20608;-52
2023/03/05 08:23:15;;;;;;;5.07;1.05;;;;;;;3.35;72.30;100983.63;5005996;28;20215;-49
2023/03/05 08:25:40;;;;;;;8.25;1.33;;;;;;;3.77;71.41;100978.91;5018415;28;20188;-50
2023/03/05 08:28:06;;;;;;;4.38;1.23;;;;;;;3.80;70.70;100960.31;5002233;28;20667;-49
2023/03/05 08:30:32;;;;;;;8.52;1.48;;;;;;;3.47;70.11;100963.22;5020183;28;20230;-52
2023/03/05 08:32:57;;;;;;;6.70;0.88;;;;;;;3.58;69.68;100964.91;5018311;28;20706;-47
2023/03/05 08:35:23;;;;;;;4.80;1.00;;;;;;;3.61;69.35;100955.19;5018102;28;20173;-49
2023/03/05 08:37:48;;;;;;;4.30;0.90;;;;;;;3.77;69.08;100953.28;5019029;28;20267;-50
2023/03/05 08:40:16;;;;;;;5.78;1.05;;;;;;;4.29;68.21;100941.31;5017085;28;20607;-49
2023/03/05 08:42:43;;;;;;;4.28;1.60;;;;;;;4.61;67.34;100938.28;5016321;28;20211;-50
2023/03/05 08:45:09;;;;;;;5.80;1.10;;;;;;;4.27;66.85;100932.50;5020387;28;20168;-50
2023/03/05 08:47:34;;;;;;;8.13;1.20;;;;;;;4.43;66.52;100935.84;5020969;28;20200;-48
2023/03/05 08:50:00;;;;;;;4.28;1.40;;;;;;;4.47;65.50;100917.22;5018108;28;20181;-48
2023/03/05 08:52:26;;;;;;;2.97;0.98;;;;;;;4.56;64.72;100910.06;5003483;28;20343;-49
2023/03/05 08:54:51;;;;;;;2.92;0.95;;;;;;;4.17;64.19;100891.94;5017816;28;20569;-49
2023/03/05 08:57:17;;;;;;;6.90;1.23;;;;;;;4.42;63.99;100902.28;5021088;28;20213;-50
2023/03/05 08:59:42;;;;;;;3.78;0.85;;;;;;;4.61;64.04;100900.25;5016556;28;20252;-49
2023/03/05 09:02:10;;;;;;;7.63;1.30;;;;;;;4.72;64.32;100885.97;5013488;28;20631;-51
2023/03/05 09:04:36;;;;;;;3.08;0.98;;;;;;;4.86;63.98;100888.44;5012375;28;20249;-49
2023/03/05 09:07:02;;;;;;;4.80;0.90;;;;;;;4.73;64.26;100897.47;5018441;28;20295;-50
2023/03/05 09:09:28;;;;;;;3.30;0.70;;;;;;;4.85;64.54;100897.28;5014948;28;20321;-51
2023/03/05 09:11:57;;;;;;;5.18;1.45;;;;;;;4.88;63.90;100897.25;5018051;28;20674;-49
2023/03/05 09:14:22;;;;;;;6.63;0.93;;;;;;;4.89;63.44;100884.84;5018640;28;20184;-48
2023/03/05 09:16:48;;;;;;;5.72;1.30;;;;;;;5.16;63.90;100887.13;5016362;28;20263;-49
2023/03/05 09:19:13;;;;;;;2.60;0.85;;;;;;;4.87;63.92;100884.88;5019008;28;20203;-49
2023/03/05 09:21:40;;;;;;;5.82;1.30;;;;;;;4.83;63.51;100884.94;5016016;28;20208;-48
2023/03/05 09:24:06;;;;;;;3.17;0.75;;;;;;;4.94;63.68;100885.66;5016963;28;20192;-50
2023/03/05 09:26:31;;;;;;;5.70;1.75;;;;;;;4.94;63.05;100867.97;5017710;28;20588;-47
2023/03/05 09:28:57;;;;;;;4.95;1.65;;;;;;;5.38;62.50;100868.19;5012135;28;20176;-45
2023/03/05 09:31:23;;;;;;;4.80;1.10;;;;;;;5.36;63.15;100876.19;5018250;28;20181;-48
2023/03/05 09:33:50;;;;;;;4.70;1.10;;;;;;;5.30;62.49;100860.31;5017796;28;20180;-50
2023/03/05 09:36:22;;;;;;;3.65;1.05;;;;;;;5.41;62.92;100867.25;5013699;28;20204;-46
2023/03/05 09:38:48;;;;;;;4.63;1.20;;;;;;;5.41;62.88;100864.59;5017448;28;20249;-47
2023/03/05 09:41:51;;;;;;;8.30;0.90;;;;;;;5.01;62.21;100860.78;5022693;28;20226;-48
2023/03/05 09:44:47;;;;;;;5.70;1.30;;;;;;;5.25;62.34;100856.00;5019906;28;20227;-48
2023/03/05 09:47:13;;;;;;;6.35;0.80;;;;;;;4.86;62.62;100868.97;5017945;28;20288;-50
2023/03/05 09:50:02;;;;;;;5.05;0.95;;;;;;;4.69;62.38;100858.59;5014625;28;20225;-46
2023/03/05 09:52:42;;;;;;;4.78;1.13;;;;;;;4.44;62.19;100866.88;5019951;28;20278;-48
2023/03/05 09:55:26;;;;;;;5.35;0.88;;;;;;;4.77;62.39;100867.31;5022661;28;20177;-45
2023/03/05 09:57:55;;;;;;;5.82;1.30;;;;;;;5.02;62.21;100862.53;5022381;28;20180;-45
2023/03/05 10:00:49;;;;;;;6.53;3.35;;;;;;;4.43;62.79;100866.88;5018433;28;20226;-50
2023/03/05 10:03:40;;;;;;;3.13;0.90;;;;;;;4.30;63.35;100871.44;4999335;28;20224;-46
2023/03/05 10:06:19;;;;;;;8.63;1.17;;;;;;;3.91;62.98;100856.00;5020401;28;20196;-48
2023/03/05 10:09:06;;;;;;;4.35;1.10;;;;;;;3.89;62.81;100855.13;5001329;28;20184;-46
2023/03/05 10:11:50;;;;;;;6.45;1.10;;;;;;;3.98;62.60;100866.50;5017448;28;20749;-48
2023/03/05 10:14:28;;;;;;;3.45;0.90;;;;;;;4.55;63.30;100869.41;5020117;28;20188;-48
2023/03/05 10:17:03;;;;;;;4.85;1.30;;;;;;;4.64;63.44;100871.06;5017608;28;20186;-50
2023/03/05 10:19:54;;;;;;;4.00;0.80;;;;;;;4.74;62.67;100856.75;5016123;28;20184;-50
2023/03/05 10:22:27;;;;;;;5.22;1.20;;;;;;;4.33;62.02;100850.22;5020511;28;20695;-48
2023/03/05 10:25:20;;;;;;;7.10;0.93;;;;;;;4.26;61.44;100822.91;5018196;28;20204;-49
2023/03/05 10:27:51;;;;;;;3.92;1.00;;;;;;;3.94;61.19;100817.97;5017640;28;20278;-49
2023/03/05 10:30:19;;;;;;;4.95;0.95;;;;;;;4.05;62.20;100839.06;5017159;28;20195;-49
2023/03/05 10:33:02;;;;;;;7.00;1.30;;;;;;;3.95;63.18;100856.81;5017011;28;20208;-48
2023/03/05 10:35:39;;;;;;;8.25;1.20;;;;;;;3.98;63.39;100864.75;5016655;28;20186;-49
2023/03/05 10:38:30;;;;;;;4.18;0.90;;;;;;;3.92;63.58;100851.56;5018046;28;20189;-48
2023/03/05 10:41:18;;;;;;;4.32;1.00;;;;;;;3.96;63.92;100855.03;5016608;28;20259;-48
2023/03/05 10:44:00;;;;;;;3.17;1.15;;;;;;;4.41;63.13;100848.31;4967218;28;20294;-49
2023/03/05 10:46:33;;;;;;;4.82;1.02;;;;;;;4.14;62.28;100838.94;5023287;28;20212;-49
2023/03/05 10:49:13;;;;;;;1.73;0.82;;;;;;;4.68;62.36;100823.22;5021500;28;20275;-48
2023/03/05 10:51:47;;;;;;;2.67;1.27;;;;;;;4.97;61.52;100815.72;5021309;28;20297;-49
2023/03/05 10:54:30;;;;;;;8.10;1.08;;;;;;;4.74;61.30;100793.94;5020559;28;20176;-50
2023/03/05 10:57:24;;;;;;;7.03;1.23;;;;;;;4.61;60.80;100797.66;5026023;28;20191;-51
2023/03/05 10:59:59;;;;;;;3.58;1.20;;;;;;;4.58;61.94;100799.47;5020259;28;20233;-48
2023/03/05 11:02:26;;;;;;;5.93;1.13;;;;;;;4.27;60.85;100790.16;5022974;28;20687;-49
2023/03/05 11:04:53;;;;;;;7.68;1.23;;;;;;;4.51;61.39;100804.88;5022146;28;20246;-49
2023/03/05 11:07:18;;;;;;;5.32;1.52;;;;;;;4.66;61.66;100808.22;5022858;28;20482;-50
2023/03/05 11:09:59;;;;;;;3.97;1.95;;;;;;;4.63;61.19;100802.94;5019446;28;20242;-49
2023/03/05 11:12:32;;;;;;;4.03;1.00;;;;;;;4.16;60.36;100778.81;5021041;28;20204;-49
2023/03/05 11:15:09;;;;;;;4.20;1.02;;;;;;;4.40;59.56;100776.75;5021951;28;20196;-49
2023/03/05 11:17:46;;;;;;;3.47;0.82;;;;;;;4.55;60.26;100776.53;5017764;28;20634;-47
2023/03/05 11:20:34;;;;;;;3.33;0.75;;;;;;;4.56;60.94;100778.28;5021037;28;20191;-44
2023/03/05 11:23:10;;;;;;;6.25;0.93;;;;;;;4.46;61.69;100789.91;5011354;28;20223;-48
2023/03/05 11:25:56;;;;;;;3.85;0.88;;;;;;;4.49;61.98;100787.22;5028932;28;20196;-43
2023/03/05 11:28:32;;;;;;;5.20;1.10;;;;;;;4.57;62.17;100795.06;5030146;28;20173;-46
2023/03/05 11:31:18;;;;;;;5.47;1.00;;;;;;;4.63;62.59;100802.94;5028533;28;20191;-43
2023/03/05 11:33:56;;;;;;;3.33;1.08;;;;;;;4.63;62.35;100803.81;5023028;28;20227;-46
2023/03/05 11:36:26;;;;;;;6.20;1.10;;;;;;;4.53;61.22;100783.63;5013648;28;20172;-48
2023/03/05 11:39:08;;;;;;;3.78;1.17;;;;;;;4.55;60.94;100768.56;5022169;28;20234;-47